Terminal Aerodrome Forecast
Issued by NWS North Platte, NE

Home | Current Version | Previous Version | Graphics & Text | Print | Product List | Glossary On
Versions: 1 2 3 4 5 6 7 8 9 10 11 12 13 14 15 16 17 18
000
FTUS43 KLBF 281723
TAFVTN
TAF
KVTN 281723Z 2818/2918 07018G23KT P6SM VCSH BKN027 OVC100
      TEMPO 2822/2902 5SM -SHRASN BKN025 OVC045
     FM290200 04011KT P6SM OVC070
     FM290400 03007KT P6SM OVC090
     FM291400 02007KT P6SM OVC050
     FM291600 03010KT P6SM OVC100=

USA.gov is the U.S. government's official web portal to all federal, state and local government web resources and services.